Mildenhall, United Kingdom
Current Conditions -  °F | °C
As of 5:38 AM on Friday 28 Nov 2014 (Local Time) from EGUN Reporting Station
Haze Haze  
Wind Chill: 50°   Ceiling: 800
Heat Index: 50°   Visibility: 6mi
Dew Point: 50°   Wind: 8mph
Humidity: 100%   Direction: 80°E
Pressure: 29.62"   Gusts: NA
Location:  52.35°N, 0.52°E
Report Text: EGUN 280538Z AUTO 08007KT 9000 BR BKN008 OVC016 10/10 A2962 RMK AO2 CIG 008V017 BKN V FEW $
Loading
Personal Weather Stations






























Interactive Weather Map New forecast layout! Learn more

10-Day Weather Forecast

Advertisements
Track Severe Weather on mobile